createdAt,value
2023-07-19T00:01:49.778Z,23.40
2023-07-19T00:04:18.000Z,23.40
2023-07-19T00:06:46.264Z,23.40
2023-07-19T00:09:14.398Z,23.30
2023-07-19T00:11:42.530Z,23.20
2023-07-19T00:14:11.999Z,23.20
2023-07-19T00:16:40.263Z,23.10
2023-07-19T00:19:19.328Z,23.10
2023-07-19T00:21:49.435Z,23.00
2023-07-19T00:24:17.807Z,23.00
2023-07-19T00:26:47.346Z,22.90
2023-07-19T00:29:16.921Z,22.90
2023-07-19T00:31:45.649Z,22.80
2023-07-19T00:34:14.356Z,22.80
2023-07-19T00:36:43.697Z,22.70
2023-07-19T00:39:13.250Z,22.70
2023-07-19T00:41:41.623Z,22.70
2023-07-19T00:44:09.759Z,22.60
2023-07-19T00:46:40.773Z,22.60
2023-07-19T00:49:09.708Z,22.50
2023-07-19T00:51:38.124Z,22.50
2023-07-19T00:54:08.236Z,22.40
2023-07-19T00:56:37.321Z,22.40
2023-07-19T00:59:06.357Z,22.40
2023-07-19T01:01:35.026Z,22.30
2023-07-19T01:04:04.725Z,22.30
2023-07-19T01:06:32.989Z,22.30
2023-07-19T01:09:01.542Z,22.20
2023-07-19T01:11:29.685Z,22.20
2023-07-19T01:13:59.800Z,22.20
2023-07-19T01:16:27.975Z,22.10
2023-07-19T01:18:56.641Z,22.10
2023-07-19T01:21:28.407Z,22.10
2023-07-19T01:23:59.682Z,22.00
2023-07-19T01:26:27.885Z,22.00
2023-07-19T01:28:59.132Z,22.00
2023-07-19T01:31:27.534Z,21.90
2023-07-19T01:33:56.378Z,21.90
2023-07-19T01:36:27.087Z,21.80
2023-07-19T01:38:55.369Z,21.80
2023-07-19T01:41:24.932Z,21.70
2023-07-19T01:43:53.090Z,21.70
2023-07-19T01:46:21.346Z,21.60
2023-07-19T01:48:49.585Z,21.60
2023-07-19T01:51:17.735Z,21.50
2023-07-19T01:53:45.885Z,21.50
2023-07-19T01:56:14.409Z,21.40
2023-07-19T01:58:44.194Z,21.40
2023-07-19T02:01:12.827Z,21.30
2023-07-19T02:03:41.022Z,21.30
2023-07-19T02:06:09.155Z,21.30
2023-07-19T02:08:37.290Z,21.20
2023-07-19T02:11:05.454Z,21.20
2023-07-19T02:13:33.654Z,21.10
2023-07-19T02:16:03.167Z,21.10
2023-07-19T02:18:31.307Z,21.00
2023-07-19T02:20:59.426Z,20.90
2023-07-19T02:23:27.577Z,20.90
2023-07-19T02:25:56.060Z,20.90
2023-07-19T02:28:24.257Z,20.90
2023-07-19T02:30:52.494Z,20.80
2023-07-19T02:33:22.028Z,20.80
2023-07-19T02:35:56.073Z,20.80
2023-07-19T02:38:24.970Z,20.80
2023-07-19T02:40:53.183Z,20.80
2023-07-19T02:43:21.295Z,20.70
2023-07-19T02:45:49.438Z,20.70
2023-07-19T02:48:17.626Z,20.70
2023-07-19T02:50:48.446Z,20.60
2023-07-19T02:53:17.326Z,20.60
2023-07-19T02:55:46.354Z,20.50
2023-07-19T02:58:14.815Z,20.50
2023-07-19T03:00:43.380Z,20.50
2023-07-19T03:03:12.954Z,20.40
2023-07-19T03:05:46.850Z,20.40
2023-07-19T03:08:15.382Z,20.40
2023-07-19T03:10:43.577Z,20.40
2023-07-19T03:13:11.752Z,20.40
2023-07-19T03:15:40.043Z,20.40
2023-07-19T03:18:08.336Z,20.40
2023-07-19T03:20:36.470Z,20.40
2023-07-19T03:23:06.293Z,20.40
2023-07-19T03:25:34.786Z,20.40
2023-07-19T03:28:02.947Z,20.40
2023-07-19T03:30:31.122Z,20.30
2023-07-19T03:33:01.065Z,20.30
2023-07-19T03:35:29.320Z,20.30
2023-07-19T03:37:57.862Z,20.30
2023-07-19T03:40:28.127Z,20.30
2023-07-19T03:42:57.437Z,20.30
2023-07-19T03:45:28.327Z,20.30
2023-07-19T03:47:56.655Z,20.20
2023-07-19T03:50:27.213Z,20.30
2023-07-19T03:52:55.387Z,20.20
2023-07-19T03:55:24.235Z,20.20
2023-07-19T03:57:54.133Z,20.20
2023-07-19T04:00:22.683Z,20.20
2023-07-19T04:02:51.472Z,20.10
2023-07-19T04:05:19.898Z,20.10
2023-07-19T04:07:48.273Z,20.10
2023-07-19T04:10:16.463Z,20.10
2023-07-19T04:12:44.580Z,20.10
2023-07-19T04:15:14.996Z,20.00
2023-07-19T04:17:43.197Z,20.00
2023-07-19T04:20:12.957Z,19.90
2023-07-19T04:22:41.923Z,19.90
2023-07-19T04:25:11.812Z,19.90
2023-07-19T04:27:40.771Z,19.90
2023-07-19T04:30:10.036Z,19.90
2023-07-19T04:32:39.570Z,19.90
2023-07-19T04:35:09.363Z,19.90
2023-07-19T04:37:41.149Z,19.90
2023-07-19T04:40:10.618Z,19.90
2023-07-19T04:42:41.139Z,19.90
2023-07-19T04:45:11.064Z,19.80
2023-07-19T04:47:41.530Z,19.90
2023-07-19T04:50:12.268Z,19.90
2023-07-19T04:52:40.914Z,19.90
2023-07-19T04:55:11.013Z,19.90
2023-07-19T04:57:39.683Z,19.90
2023-07-19T05:00:12.863Z,19.90
2023-07-19T05:02:43.358Z,19.90
2023-07-19T05:05:13.441Z,19.90
2023-07-19T05:07:42.009Z,20.00
2023-07-19T05:10:11.341Z,19.90
2023-07-19T05:12:40.770Z,19.90
2023-07-19T05:15:10.379Z,20.00
2023-07-19T05:17:38.918Z,20.00
2023-07-19T05:20:10.344Z,20.00
2023-07-19T05:22:38.527Z,20.00
2023-07-19T05:25:07.807Z,20.00
2023-07-19T05:27:35.941Z,20.00
2023-07-19T05:30:05.485Z,20.20
2023-07-19T05:32:33.628Z,20.10
2023-07-19T05:35:02.043Z,20.10
2023-07-19T05:37:31.529Z,20.10
2023-07-19T05:39:59.807Z,20.10
2023-07-19T05:42:27.961Z,20.10
2023-07-19T05:44:57.009Z,20.20
2023-07-19T05:47:25.354Z,20.20
2023-07-19T05:49:53.528Z,20.20
2023-07-19T05:52:21.765Z,20.20
2023-07-19T05:54:51.240Z,20.30
2023-07-19T05:57:19.368Z,20.30
2023-07-19T05:59:47.495Z,20.30
2023-07-19T06:02:15.767Z,20.40
2023-07-19T06:04:44.375Z,20.40
2023-07-19T06:07:12.662Z,20.50
2023-07-19T06:09:40.799Z,20.50
2023-07-19T06:12:11.810Z,20.50
2023-07-19T06:14:40.006Z,20.60
2023-07-19T06:17:08.237Z,20.70
2023-07-19T06:19:36.385Z,20.70
2023-07-19T06:22:05.030Z,20.80
2023-07-19T06:24:33.454Z,20.80
2023-07-19T06:27:01.603Z,20.90
2023-07-19T06:29:31.124Z,20.90
2023-07-19T06:31:59.259Z,20.90
2023-07-19T06:34:27.439Z,21.00
2023-07-19T06:36:55.558Z,21.00
2023-07-19T06:39:23.816Z,21.10
2023-07-19T06:41:51.924Z,21.20
2023-07-19T06:44:20.074Z,21.20
2023-07-19T06:46:49.617Z,21.50
2023-07-19T06:49:18.017Z,21.30
2023-07-19T06:51:46.276Z,21.40
2023-07-19T06:54:15.738Z,21.50
2023-07-19T06:56:44.667Z,21.60
2023-07-19T06:59:12.947Z,21.60
2023-07-19T07:01:41.188Z,21.70
2023-07-19T07:04:10.893Z,21.80
2023-07-19T07:06:39.092Z,21.80
2023-07-19T07:09:07.228Z,21.90
2023-07-19T07:11:35.494Z,22.00
2023-07-19T07:14:03.634Z,22.10
2023-07-19T07:16:31.828Z,22.20
2023-07-19T07:19:00.203Z,22.30
2023-07-19T07:21:29.708Z,22.40
2023-07-19T07:23:57.856Z,22.60
2023-07-19T07:26:26.374Z,22.70
2023-07-19T07:28:54.495Z,22.80
2023-07-19T07:31:22.895Z,23.00
2023-07-19T07:33:51.421Z,23.10
2023-07-19T07:36:19.542Z,23.30
2023-07-19T07:38:49.783Z,23.50
2023-07-19T07:41:18.100Z,23.70
2023-07-19T07:43:46.378Z,24.00
2023-07-19T07:46:15.213Z,24.20
2023-07-19T07:48:43.526Z,24.60
2023-07-19T07:51:11.892Z,24.80
2023-07-19T07:53:40.204Z,25.10
2023-07-19T07:56:09.746Z,25.30
2023-07-19T07:58:37.867Z,25.60
2023-07-19T08:01:06.056Z,25.80
2023-07-19T08:03:34.252Z,26.10
2023-07-19T08:06:05.251Z,26.20
2023-07-19T08:08:33.488Z,26.60
2023-07-19T08:11:06.192Z,26.70
2023-07-19T08:13:35.711Z,26.90
2023-07-19T08:16:07.311Z,27.10
2023-07-19T08:18:35.600Z,27.20
2023-07-19T08:21:04.260Z,27.30
2023-07-19T08:23:32.394Z,27.50
2023-07-19T08:26:00.753Z,27.60
2023-07-19T08:28:28.921Z,27.80
2023-07-19T08:30:58.483Z,27.90
2023-07-19T08:33:29.240Z,28.00
2023-07-19T08:35:57.448Z,28.10
2023-07-19T08:38:25.618Z,28.20
2023-07-19T08:41:01.980Z,28.30
2023-07-19T08:43:30.702Z,28.40
2023-07-19T08:46:00.271Z,28.50
2023-07-19T08:48:30.816Z,28.50
2023-07-19T08:51:03.415Z,28.60
2023-07-19T08:53:31.544Z,28.80
2023-07-19T08:55:59.798Z,28.90
2023-07-19T08:58:28.346Z,28.90
2023-07-19T09:00:56.515Z,29.00
2023-07-19T09:03:25.989Z,29.00
2023-07-19T09:05:55.776Z,29.10
2023-07-19T09:08:35.958Z,29.20
2023-07-19T09:11:04.202Z,29.20
2023-07-19T09:13:35.924Z,29.30
2023-07-19T09:16:06.883Z,29.20
2023-07-19T09:18:38.860Z,29.30
2023-07-19T09:21:07.511Z,29.30
2023-07-19T09:23:37.783Z,29.40
2023-07-19T09:26:08.049Z,29.50
2023-07-19T09:28:37.038Z,29.50
2023-07-19T09:33:39.617Z,29.80
2023-07-19T09:36:07.774Z,29.90
2023-07-19T09:38:35.926Z,30.10
2023-07-19T09:41:04.714Z,30.20
2023-07-19T09:43:35.875Z,30.30
2023-07-19T09:46:04.901Z,30.50
2023-07-19T09:48:33.385Z,30.60
2023-07-19T09:51:04.993Z,30.70
2023-07-19T09:53:36.680Z,30.90
2023-07-19T09:56:06.069Z,31.10
2023-07-19T09:58:35.582Z,31.20
2023-07-19T10:01:03.786Z,31.30
2023-07-19T10:03:32.062Z,31.40
2023-07-19T10:06:02.494Z,31.50
2023-07-19T10:08:32.179Z,31.60
2023-07-19T10:11:02.557Z,31.70
2023-07-19T10:13:31.333Z,31.80
2023-07-19T10:15:59.644Z,31.90
2023-07-19T10:18:28.553Z,32.30
2023-07-19T10:21:06.903Z,32.20
2023-07-19T10:23:35.651Z,32.30
2023-07-19T10:26:08.059Z,32.40
2023-07-19T10:28:36.340Z,32.60
2023-07-19T10:31:27.269Z,32.80
2023-07-19T10:33:56.551Z,32.80
2023-07-19T10:36:26.634Z,33.00
2023-07-19T10:38:55.049Z,33.10
2023-07-19T10:41:23.658Z,33.20
2023-07-19T10:43:54.680Z,33.50
2023-07-19T10:46:24.248Z,33.40
2023-07-19T10:48:52.979Z,33.50
2023-07-19T10:51:22.744Z,33.50
2023-07-19T10:53:58.222Z,33.50
2023-07-19T10:56:27.823Z,33.50
2023-07-19T10:59:00.220Z,33.50
2023-07-19T11:01:30.187Z,33.40
2023-07-19T11:04:04.396Z,33.40
2023-07-19T11:06:33.467Z,33.30
2023-07-19T11:09:10.774Z,33.30
2023-07-19T11:11:41.125Z,33.30
2023-07-19T11:14:09.405Z,33.60
2023-07-19T11:16:37.866Z,33.50
2023-07-19T11:19:06.309Z,33.50
2023-07-19T11:21:34.656Z,33.50
2023-07-19T11:24:03.631Z,33.50
2023-07-19T11:26:33.134Z,33.50
2023-07-19T11:29:01.413Z,33.60
2023-07-19T11:31:35.909Z,33.60
2023-07-19T11:34:07.896Z,33.60
2023-07-19T11:36:36.565Z,33.80
2023-07-19T11:39:05.060Z,33.70
2023-07-19T11:41:35.231Z,33.80
2023-07-19T11:44:04.122Z,33.90
2023-07-19T11:46:32.504Z,34.00
2023-07-19T11:49:00.738Z,34.00
2023-07-19T11:51:29.145Z,34.00
2023-07-19T11:53:57.656Z,34.00
2023-07-19T11:56:29.166Z,33.90
2023-07-19T11:58:59.789Z,33.90
2023-07-19T12:01:28.502Z,34.10
2023-07-19T12:04:01.021Z,33.80
2023-07-19T12:06:30.106Z,33.70
2023-07-19T12:08:58.425Z,33.80
2023-07-19T12:11:26.779Z,33.60
2023-07-19T12:13:58.137Z,33.60
2023-07-19T12:16:28.352Z,33.60
2023-07-19T12:18:56.592Z,33.60
2023-07-19T12:21:25.260Z,33.60
2023-07-19T12:28:56.081Z,33.60
2023-07-19T12:31:24.401Z,33.70
2023-07-19T12:33:53.973Z,33.50
2023-07-19T12:36:22.436Z,33.50
2023-07-19T12:38:51.452Z,33.50
2023-07-19T12:41:19.738Z,33.40
2023-07-19T12:43:47.984Z,33.40
2023-07-19T12:46:16.196Z,33.30
2023-07-19T12:48:44.391Z,33.20
2023-07-19T12:51:14.060Z,33.10
2023-07-19T12:53:42.289Z,33.10
2023-07-19T12:56:10.451Z,33.00
2023-07-19T12:58:38.596Z,32.90
2023-07-19T13:01:06.818Z,32.80
2023-07-19T13:03:35.196Z,32.80
2023-07-19T13:06:03.356Z,32.70
2023-07-19T13:08:32.840Z,32.60
2023-07-19T13:11:01.218Z,32.50
2023-07-19T13:13:29.337Z,32.60
2023-07-19T13:15:57.485Z,32.50
2023-07-19T13:18:25.725Z,32.40
2023-07-19T13:20:55.050Z,32.30
2023-07-19T13:23:23.337Z,32.30
2023-07-19T13:25:53.091Z,32.10
2023-07-19T13:28:22.027Z,32.10
2023-07-19T13:30:50.887Z,32.00
2023-07-19T13:33:19.120Z,31.90
2023-07-19T13:40:53.571Z,31.60
2023-07-19T13:43:21.880Z,31.50
2023-07-19T13:45:50.313Z,31.50
2023-07-19T13:48:18.807Z,31.60
2023-07-19T13:50:47.205Z,31.40
2023-07-19T13:53:15.635Z,31.30
2023-07-19T13:55:44.182Z,31.20
2023-07-19T13:58:14.714Z,31.20
2023-07-19T14:00:42.936Z,31.00
2023-07-19T14:03:12.322Z,30.90
2023-07-19T14:05:41.239Z,30.80
2023-07-19T14:08:10.122Z,30.70
2023-07-19T14:10:38.554Z,30.60
2023-07-19T14:13:06.770Z,30.60
2023-07-19T14:15:36.350Z,30.50
2023-07-19T14:18:05.296Z,30.50
2023-07-19T14:20:33.519Z,30.50
2023-07-19T14:23:01.814Z,30.50
2023-07-19T14:25:30.085Z,30.50
2023-07-19T14:27:58.698Z,30.50
2023-07-19T14:30:26.863Z,30.60
2023-07-19T14:32:56.352Z,30.80
2023-07-19T14:35:24.508Z,30.70
2023-07-19T14:37:52.659Z,30.80
2023-07-19T14:40:21.089Z,30.90
2023-07-19T14:42:52.345Z,30.90
2023-07-19T14:45:21.325Z,31.00
2023-07-19T14:47:49.618Z,31.10
2023-07-19T14:50:19.288Z,31.20
2023-07-19T14:52:51.598Z,31.30
2023-07-19T14:55:20.185Z,31.60
2023-07-19T14:57:48.440Z,31.40
2023-07-19T15:00:18.519Z,31.50
2023-07-19T15:03:06.029Z,31.50
2023-07-19T15:05:35.577Z,31.60
2023-07-19T15:08:04.376Z,31.60
2023-07-19T15:10:32.809Z,31.70
2023-07-19T15:13:00.995Z,31.70
2023-07-19T15:15:29.243Z,31.80
2023-07-19T15:17:57.620Z,31.80
2023-07-19T15:20:25.871Z,31.90
2023-07-19T15:22:55.909Z,31.90
2023-07-19T15:25:24.529Z,32.00
2023-07-19T15:27:52.670Z,32.00
2023-07-19T15:30:21.072Z,32.10
2023-07-19T15:32:49.234Z,32.10
2023-07-19T15:35:17.860Z,32.10
2023-07-19T15:37:46.019Z,32.10
2023-07-19T15:40:16.121Z,32.10
2023-07-19T15:42:44.281Z,32.10
2023-07-19T15:45:13.319Z,32.10
2023-07-19T15:47:41.509Z,32.00
2023-07-19T15:50:14.311Z,32.00
2023-07-19T15:52:44.101Z,31.90
2023-07-19T15:55:12.266Z,31.90
2023-07-19T15:57:41.754Z,31.70
2023-07-19T16:00:11.527Z,31.60
2023-07-19T16:02:39.867Z,31.50
2023-07-19T16:05:08.640Z,31.40
2023-07-19T16:07:36.870Z,31.20
2023-07-19T16:10:05.998Z,31.20
2023-07-19T16:12:35.420Z,31.00
2023-07-19T16:15:05.774Z,31.00
2023-07-19T16:17:33.918Z,30.80
2023-07-19T16:20:02.199Z,30.80
2023-07-19T16:22:30.452Z,30.70
2023-07-19T16:24:58.602Z,30.60
2023-07-19T16:27:26.724Z,30.60
2023-07-19T16:29:54.965Z,30.60
2023-07-19T16:32:24.439Z,30.40
2023-07-19T16:34:52.618Z,30.40
2023-07-19T16:37:20.756Z,30.20
2023-07-19T16:39:48.894Z,30.10
2023-07-19T16:42:17.056Z,30.00
2023-07-19T16:44:45.284Z,29.90
2023-07-19T16:47:13.573Z,29.70
2023-07-19T16:49:43.116Z,29.70
2023-07-19T16:52:13.313Z,29.60
2023-07-19T16:54:42.455Z,29.50
2023-07-19T16:57:10.950Z,29.40
2023-07-19T16:59:39.127Z,29.40
2023-07-19T17:02:07.275Z,29.30
2023-07-19T17:04:35.482Z,29.20
2023-07-19T17:07:05.477Z,29.20
2023-07-19T17:09:34.034Z,29.10
2023-07-19T17:12:02.356Z,29.00
2023-07-19T17:14:30.512Z,28.90
2023-07-19T17:17:10.945Z,28.80
2023-07-19T17:19:41.701Z,28.70
2023-07-19T17:22:11.888Z,28.70
2023-07-19T17:24:40.201Z,28.60
2023-07-19T17:27:08.669Z,28.50
2023-07-19T17:29:36.854Z,28.50
2023-07-19T17:32:06.401Z,28.40
2023-07-19T17:34:34.618Z,28.30
2023-07-19T17:37:03.143Z,28.20
2023-07-19T17:39:32.628Z,28.10
2023-07-19T17:42:00.863Z,28.00
2023-07-19T17:44:29.010Z,27.90
2023-07-19T17:46:57.156Z,27.80
2023-07-19T17:49:25.315Z,27.70
2023-07-19T17:51:53.538Z,27.70
2023-07-19T17:54:21.679Z,27.60
2023-07-19T17:56:52.328Z,27.60
2023-07-19T17:59:20.482Z,27.50
2023-07-19T18:01:48.937Z,27.40
2023-07-19T18:04:17.111Z,27.40
2023-07-19T18:06:45.234Z,27.40
2023-07-19T18:09:13.333Z,27.40
2023-07-19T18:11:41.566Z,27.40
2023-07-19T18:14:11.062Z,27.30
2023-07-19T18:16:39.326Z,27.30
2023-07-19T18:19:07.481Z,27.40
2023-07-19T18:21:35.612Z,27.40
2023-07-19T18:24:03.797Z,27.40
2023-07-19T18:26:31.941Z,27.40
2023-07-19T18:29:00.110Z,27.40
2023-07-19T18:31:30.956Z,27.40
2023-07-19T18:33:59.254Z,27.50
2023-07-19T18:36:27.416Z,27.50
2023-07-19T18:38:57.257Z,27.40
2023-07-19T18:41:25.600Z,27.40
2023-07-19T18:43:53.730Z,27.40
2023-07-19T18:46:21.924Z,27.40
2023-07-19T18:48:51.478Z,27.30
2023-07-19T18:51:19.731Z,27.30
2023-07-19T18:53:48.991Z,27.30
2023-07-19T18:56:17.399Z,27.20
2023-07-19T18:58:46.501Z,27.20
2023-07-19T19:01:14.766Z,27.20
2023-07-19T19:03:42.996Z,27.10
2023-07-19T19:06:12.615Z,27.10
2023-07-19T19:08:40.779Z,27.00
2023-07-19T19:11:08.894Z,27.00
2023-07-19T19:13:37.044Z,26.90
2023-07-19T19:16:05.891Z,26.90
2023-07-19T19:18:34.087Z,26.90
2023-07-19T19:21:02.244Z,26.80
2023-07-19T19:23:31.849Z,26.60
2023-07-19T19:26:01.191Z,26.50
2023-07-19T19:28:30.305Z,26.40
2023-07-19T19:31:00.248Z,26.30
2023-07-19T19:33:28.533Z,26.20
2023-07-19T19:35:56.905Z,26.00
2023-07-19T19:38:28.070Z,25.90
2023-07-19T19:40:58.881Z,25.80
2023-07-19T19:43:27.264Z,25.70
2023-07-19T19:45:55.500Z,25.50
2023-07-19T19:48:23.718Z,25.40
2023-07-19T19:50:52.167Z,25.30
2023-07-19T19:53:21.419Z,25.20
2023-07-19T19:55:50.015Z,25.10
2023-07-19T19:58:20.082Z,25.00
2023-07-19T20:00:48.468Z,24.90
2023-07-19T20:08:18.676Z,24.70
2023-07-19T20:13:20.053Z,24.60
2023-07-19T20:15:49.922Z,24.60
2023-07-19T20:18:19.950Z,24.60
2023-07-19T20:20:48.935Z,24.60
2023-07-19T20:23:17.346Z,24.60
2023-07-19T20:26:01.271Z,24.60
2023-07-19T20:28:36.176Z,24.60
2023-07-19T20:31:06.594Z,24.60
2023-07-19T20:33:35.582Z,24.50
2023-07-19T20:36:05.634Z,24.50
2023-07-19T20:43:38.051Z,24.50
2023-07-19T20:46:08.652Z,24.50
2023-07-19T20:48:39.080Z,24.50
2023-07-19T20:51:12.298Z,24.50
2023-07-19T20:53:41.240Z,24.50
2023-07-19T20:56:09.439Z,24.50
2023-07-19T20:58:39.253Z,24.40
2023-07-19T21:01:07.473Z,24.40
2023-07-19T21:03:38.194Z,24.40
2023-07-19T21:06:06.655Z,24.40
2023-07-19T21:08:34.813Z,24.30
2023-07-19T21:11:03.021Z,24.30
2023-07-19T21:13:31.166Z,24.30
2023-07-19T21:16:00.778Z,24.30
2023-07-19T21:18:29.097Z,24.20
2023-07-19T21:20:57.232Z,24.20
2023-07-19T21:23:25.403Z,24.20
2023-07-19T21:25:54.254Z,24.20
2023-07-19T21:28:22.576Z,24.10
2023-07-19T21:30:50.853Z,24.20
2023-07-19T21:33:20.455Z,24.10
2023-07-19T21:35:48.733Z,24.10
2023-07-19T21:38:17.017Z,24.10
2023-07-19T21:40:45.628Z,24.10
2023-07-19T21:43:13.850Z,24.00
2023-07-19T21:45:42.885Z,24.00
2023-07-19T21:48:12.567Z,24.00
2023-07-19T21:50:47.908Z,24.00
2023-07-19T21:53:17.480Z,23.90
2023-07-19T21:55:46.050Z,23.90
2023-07-19T21:58:14.147Z,23.80
2023-07-19T22:00:44.094Z,23.70
2023-07-19T22:03:13.840Z,23.70
2023-07-19T22:05:44.135Z,23.60
2023-07-19T22:08:12.975Z,23.60
2023-07-19T22:10:41.598Z,23.50
2023-07-19T22:13:10.730Z,23.50
2023-07-19T22:15:39.294Z,23.40
2023-07-19T22:18:19.556Z,23.40
2023-07-19T22:20:51.296Z,23.30
2023-07-19T22:23:20.693Z,23.20
2023-07-19T22:25:51.998Z,23.20
2023-07-19T22:28:21.681Z,23.20
2023-07-19T22:30:56.382Z,23.20
2023-07-19T22:33:25.019Z,23.10
2023-07-19T22:35:54.548Z,23.10
2023-07-19T22:38:22.686Z,23.10
2023-07-19T22:40:50.807Z,23.10
2023-07-19T22:43:19.105Z,23.00
2023-07-19T22:45:47.319Z,23.00
2023-07-19T22:48:15.502Z,23.00
2023-07-19T22:50:43.643Z,23.00
2023-07-19T22:53:14.050Z,23.00
2023-07-19T22:55:42.357Z,23.00
2023-07-19T22:58:10.495Z,23.40
2023-07-19T23:00:38.731Z,22.90
2023-07-19T23:03:07.102Z,22.90
2023-07-19T23:05:37.264Z,22.90
2023-07-19T23:08:06.248Z,22.90
2023-07-19T23:10:35.870Z,22.80
2023-07-19T23:13:04.227Z,22.90
2023-07-19T23:15:32.341Z,22.80
2023-07-19T23:18:00.570Z,22.70
2023-07-19T23:20:28.794Z,22.70
2023-07-19T23:22:57.496Z,22.60
2023-07-19T23:25:28.151Z,22.60
2023-07-19T23:28:01.001Z,22.50
2023-07-19T23:30:30.586Z,22.40
2023-07-19T23:33:00.475Z,22.40
2023-07-19T23:35:28.824Z,22.40
2023-07-19T23:37:57.494Z,22.30
2023-07-19T23:40:25.867Z,22.30
2023-07-19T23:42:55.076Z,22.20
2023-07-19T23:45:24.947Z,22.20
2023-07-19T23:47:54.628Z,22.20
2023-07-19T23:50:22.824Z,22.20
2023-07-19T23:52:50.972Z,22.20
2023-07-19T23:55:19.277Z,22.10
2023-07-19T23:57:47.473Z,22.10
